Time;durP1;ratioP1;P1;durP2;ratioP2;P2;SDS_P1;SDS_P2;PMS_P1;PMS_P2;Temp;Humidity;BMP_temperature;BMP_pressure;BME280_temperature;BME280_humidity;BME280_pressure;Samples;Min_cycle;Max_cycle;Signal;HPM_P1;HPM_P2
2022/10/30 00:01:11;;;;;;;8.73;4.60;;;;;;;15.58;87.23;101078.72;5051936;28;20063;-79
2022/10/30 00:03:58;;;;;;;6.75;4.22;;;;;;;15.54;87.42;101077.94;5040313;28;20051;-76
2022/10/30 00:06:45;;;;;;;7.78;4.70;;;;;;;15.57;87.58;101074.38;5040695;28;20052;-74
2022/10/30 00:09:32;;;;;;;5.80;3.20;;;;;;;15.61;87.18;101070.75;5042385;28;20079;-76
2022/10/30 00:12:19;;;;;;;7.78;4.38;;;;;;;15.57;87.30;101066.47;5043655;28;20056;-77
2022/10/30 00:15:06;;;;;;;8.82;5.18;;;;;;;15.53;87.33;101071.78;5034333;28;20580;-81
2022/10/30 00:17:53;;;;;;;7.25;3.38;;;;;;;15.53;87.38;101065.66;5035787;28;20054;-80
2022/10/30 00:20:40;;;;;;;5.55;3.97;;;;;;;15.55;87.27;101045.34;5038972;28;20123;-77
2022/10/30 00:23:27;;;;;;;10.40;5.07;;;;;;;15.63;86.77;101043.44;5045087;28;20476;-75
2022/10/30 00:26:14;;;;;;;8.07;4.72;;;;;;;15.76;85.60;101040.47;5037072;28;20060;-78
2022/10/30 00:29:01;;;;;;;7.55;3.88;;;;;;;15.77;85.23;101051.00;5047863;28;20242;-80
2022/10/30 00:31:48;;;;;;;10.32;4.03;;;;;;;15.76;85.29;101045.75;5042684;28;20075;-77
2022/10/30 00:34:34;;;;;;;9.10;4.40;;;;;;;15.74;85.47;101043.16;5048851;28;20033;-76
2022/10/30 00:37:21;;;;;;;10.75;3.78;;;;;;;15.74;85.42;101040.53;5044492;28;20677;-79
2022/10/30 00:40:15;;;;;;;7.75;4.13;;;;;;;15.73;85.46;101053.75;5030701;28;20990;-78
2022/10/30 00:43:05;;;;;;;;;;;;;;;15.67;85.25;101050.34;5037789;28;20045;-78
2022/10/30 00:45:51;;;;;;;5.05;3.88;;;;;;;15.68;85.36;101053.84;5040224;28;19931;-76
2022/10/30 00:48:38;;;;;;;7.65;4.13;;;;;;;15.65;85.39;101046.88;5039054;28;20037;-77
2022/10/30 00:51:28;;;;;;;8.77;3.65;;;;;;;15.65;85.27;101059.22;5038053;28;20052;-77
2022/10/30 00:54:18;;;;;;;6.88;4.03;;;;;;;15.61;85.32;101053.13;5032854;28;20045;-79
2022/10/30 00:57:08;;;;;;;7.13;3.70;;;;;;;15.59;85.15;101046.16;5037689;28;20057;-81
2022/10/30 00:59:54;;;;;;;8.07;4.05;;;;;;;15.58;85.23;101047.06;5035515;28;20044;-76
2022/10/30 01:02:43;;;;;;;14.02;5.05;;;;;;;15.53;85.21;101047.19;5041165;28;20744;-76
2022/10/30 01:05:35;;;;;;;12.45;4.05;;;;;;;15.47;85.44;101045.53;5040645;28;20040;-75
2022/10/30 01:08:21;;;;;;;7.10;3.65;;;;;;;15.42;85.52;101046.56;5053906;28;20052;-80
2022/10/30 01:11:09;;;;;;;6.90;3.63;;;;;;;15.35;86.03;101051.97;5049350;28;20053;-79
2022/10/30 01:14:01;;;;;;;4.60;3.55;;;;;;;15.32;85.96;101044.13;5039320;28;20063;-77
2022/10/30 01:17:11;;;;;;;4.53;3.10;;;;;;;15.31;85.58;101036.25;5042201;28;20044;-79
2022/10/30 01:20:21;;;;;;;8.43;3.53;;;;;;;15.30;85.85;101031.88;5041802;28;20112;-77
2022/10/30 01:23:45;;;;;;;7.03;4.68;;;;;;;15.34;85.36;101033.53;5034076;28;20134;-78
2022/10/30 01:26:44;;;;;;;8.23;4.00;;;;;;;15.42;84.71;101031.56;5058163;28;20052;-76
2022/10/30 01:29:49;;;;;;;10.38;5.07;;;;;;;15.43;84.75;101032.47;5046709;28;20041;-80
2022/10/30 01:33:14;;;;;;;4.93;3.58;;;;;;;15.46;84.33;101038.53;5051054;28;20044;-78
2022/10/30 01:36:43;;;;;;;7.32;3.92;;;;;;;15.49;83.98;101034.97;5052921;28;20041;-81
2022/10/30 01:39:36;;;;;;;7.30;3.55;;;;;;;15.48;84.20;101030.59;4957364;28;20049;-77
2022/10/30 01:42:46;;;;;;;7.03;3.75;;;;;;;15.47;84.13;101036.75;5035705;28;20061;-77
2022/10/30 01:46:04;;;;;;;7.97;3.63;;;;;;;15.44;84.41;101031.56;5041681;28;20055;-79
2022/10/30 01:49:31;;;;;;;9.20;3.50;;;;;;;15.41;84.40;101024.59;5049985;28;20039;-77
2022/10/30 01:52:56;;;;;;;7.95;3.58;;;;;;;15.44;84.31;101034.22;5053940;28;20044;-77
2022/10/30 01:55:57;;;;;;;6.50;3.70;;;;;;;15.42;84.33;101023.66;5046805;28;20075;-78
2022/10/30 01:59:19;;;;;;;10.90;3.53;;;;;;;15.40;84.41;101033.41;5052380;28;20078;-77
2022/10/30 02:02:07;;;;;;;6.65;4.07;;;;;;;15.35;84.54;101033.50;5053036;28;20071;-78
2022/10/30 02:04:54;;;;;;;10.77;3.47;;;;;;;15.28;84.75;101031.91;5048887;28;20041;-79
2022/10/30 02:07:41;;;;;;;7.30;3.78;;;;;;;15.21;85.19;101039.09;5053106;28;20037;-77
2022/10/30 02:10:29;;;;;;;7.38;3.58;;;;;;;15.18;85.05;101038.28;5047992;28;20039;-76
2022/10/30 02:13:16;;;;;;;11.68;4.45;;;;;;;15.15;85.39;101043.66;5050438;28;20045;-77
2022/10/30 02:16:03;;;;;;;13.45;4.65;;;;;;;15.08;85.72;101050.78;5034507;28;20399;-78
2022/10/30 02:18:50;;;;;;;7.55;3.65;;;;;;;15.01;85.85;101047.41;5043221;28;20041;-77
2022/10/30 02:21:37;;;;;;;10.75;3.50;;;;;;;14.92;86.46;101046.75;5051588;28;20060;-77
2022/10/30 02:24:24;;;;;;;7.43;4.22;;;;;;;14.86;87.01;101038.06;5042368;28;20056;-78
2022/10/30 02:27:11;;;;;;;5.60;4.15;;;;;;;14.87;87.10;101045.09;5039741;28;20046;-78
2022/10/30 02:29:59;;;;;;;12.60;4.55;;;;;;;14.91;86.63;101045.88;5045174;28;20394;-79
2022/10/30 02:32:45;;;;;;;10.13;4.40;;;;;;;14.92;86.89;101047.63;5044242;28;20049;-75
2022/10/30 02:35:34;;;;;;;5.95;3.50;;;;;;;14.92;86.75;101050.25;5051135;28;20048;-77
2022/10/30 02:38:20;;;;;;;6.70;2.92;;;;;;;14.90;86.58;101046.81;5040655;28;20115;-77
2022/10/30 02:41:07;;;;;;;7.18;3.67;;;;;;;14.92;86.56;101044.97;5041994;28;20041;-77
2022/10/30 02:43:54;;;;;;;4.82;3.08;;;;;;;14.93;86.59;101040.56;5034158;28;20080;-78
2022/10/30 02:46:41;;;;;;;7.57;4.55;;;;;;;14.93;86.76;101041.44;5043067;28;20080;-78
2022/10/30 02:49:28;;;;;;;15.40;4.10;;;;;;;14.98;86.33;101043.97;5048593;28;20036;-76
2022/10/30 02:52:15;;;;;;;11.52;5.07;;;;;;;15.02;85.94;101040.41;5041840;28;20072;-81
2022/10/30 02:55:02;;;;;;;7.07;3.90;;;;;;;15.04;85.79;101041.22;5042680;28;20063;-78
2022/10/30 02:57:48;;;;;;;7.38;4.13;;;;;;;15.02;85.69;101043.91;5052088;28;20044;-77
2022/10/30 03:00:35;;;;;;;8.55;4.05;;;;;;;14.98;86.17;101049.25;5044442;28;20044;-79
2022/10/30 03:03:22;;;;;;;11.70;3.72;;;;;;;14.90;86.61;101046.81;5039681;28;20059;-78
2022/10/30 03:06:12;;;;;;;6.90;4.72;;;;;;;14.82;87.08;101044.31;5040510;28;20059;-79
2022/10/30 03:08:59;;;;;;;7.55;3.90;;;;;;;14.77;87.45;101053.19;5041781;28;20041;-77
2022/10/30 03:11:46;;;;;;;9.55;3.83;;;;;;;14.74;87.76;101051.50;5043337;28;20048;-80
2022/10/30 03:14:33;;;;;;;7.53;3.55;;;;;;;14.72;87.84;101048.03;5036290;28;20036;-79
2022/10/30 03:17:20;;;;;;;9.90;4.10;;;;;;;14.69;88.25;101041.06;5042077;28;20037;-76
2022/10/30 03:20:07;;;;;;;11.00;4.35;;;;;;;14.71;88.06;101051.56;5040744;28;20044;-78
2022/10/30 03:22:54;;;;;;;8.02;4.97;;;;;;;14.72;88.02;101045.41;5038994;28;20041;-78
2022/10/30 03:25:40;;;;;;;6.38;3.63;;;;;;;14.80;87.65;101050.53;5053642;28;20595;-80
2022/10/30 03:28:29;;;;;;;7.32;3.55;;;;;;;14.85;87.36;101051.28;5040090;28;20048;-77
2022/10/30 03:31:19;;;;;;;8.85;3.85;;;;;;;14.90;87.20;101044.16;5042780;28;20102;-77
2022/10/30 03:34:06;;;;;;;6.10;3.67;;;;;;;14.89;86.71;101051.19;5046583;28;20055;-79
2022/10/30 03:36:53;;;;;;;7.22;3.38;;;;;;;14.88;86.72;101043.31;5048934;28;20806;-77
2022/10/30 03:39:40;;;;;;;9.20;4.68;;;;;;;14.84;86.73;101034.59;5055887;28;20037;-77
2022/10/30 03:42:27;;;;;;;11.15;3.78;;;;;;;14.81;86.78;101045.22;5038102;28;20044;-79
2022/10/30 03:45:14;;;;;;;8.65;4.07;;;;;;;14.80;86.91;101048.75;5040587;28;20037;-79
2022/10/30 03:48:02;;;;;;;8.10;3.88;;;;;;;14.81;87.17;101046.97;5034762;28;20787;-80
2022/10/30 03:50:49;;;;;;;6.78;3.78;;;;;;;14.77;87.02;101043.53;5047523;28;20101;-77
2022/10/30 03:53:36;;;;;;;8.13;3.40;;;;;;;14.74;87.01;101038.31;5042600;28;20048;-77
2022/10/30 03:56:22;;;;;;;6.55;4.00;;;;;;;14.66;87.44;101042.88;5039811;28;20052;-79
2022/10/30 03:59:09;;;;;;;6.63;3.55;;;;;;;14.57;88.08;101043.88;5038727;28;20134;-77
2022/10/30 04:01:56;;;;;;;5.20;2.97;;;;;;;14.46;88.68;101049.38;5038804;28;20067;-79
2022/10/30 04:04:43;;;;;;;10.18;3.75;;;;;;;14.34;89.63;101046.94;5037971;28;20056;-79
2022/10/30 04:07:30;;;;;;;9.13;4.45;;;;;;;14.32;90.17;101048.75;5049277;28;20045;-78
2022/10/30 04:10:16;;;;;;;6.38;3.70;;;;;;;14.26;90.18;101048.84;5046552;28;20595;-79
2022/10/30 04:13:06;;;;;;;10.60;3.92;;;;;;;14.23;90.53;101055.03;5036308;28;20048;-79
2022/10/30 04:15:54;;;;;;;11.50;3.70;;;;;;;14.19;90.59;101056.00;5050408;28;20040;-78
2022/10/30 04:18:40;;;;;;;5.47;3.63;;;;;;;14.13;91.18;101062.25;5038039;28;20075;-80
2022/10/30 04:21:27;;;;;;;9.32;3.80;;;;;;;14.13;91.12;101051.72;5040172;28;20051;-75
2022/10/30 04:24:16;;;;;;;6.03;3.53;;;;;;;14.10;91.27;101051.75;5044722;28;20049;-77
2022/10/30 04:27:02;;;;;;;7.40;4.63;;;;;;;14.08;91.44;101048.31;5047086;28;20060;-76
2022/10/30 04:29:49;;;;;;;10.70;4.53;;;;;;;14.08;91.75;101048.31;5048638;28;20774;-75
2022/10/30 04:32:36;;;;;;;7.40;3.92;;;;;;;14.09;91.42;101047.38;5038731;28;20040;-79
2022/10/30 04:35:26;;;;;;;9.38;4.05;;;;;;;14.09;91.69;101059.69;5039334;28;20053;-76
2022/10/30 04:38:15;;;;;;;14.32;4.63;;;;;;;14.07;91.73;101043.94;5042955;28;20045;-77
2022/10/30 04:41:02;;;;;;;8.60;4.00;;;;;;;14.05;91.61;101051.84;5053421;28;20872;-80
2022/10/30 04:43:50;;;;;;;6.30;3.13;;;;;;;14.00;91.73;101043.16;5048617;28;20044;-77
2022/10/30 04:46:36;;;;;;;8.90;4.22;;;;;;;13.96;92.08;101044.13;5044192;28;20045;-76
2022/10/30 04:49:23;;;;;;;4.85;3.45;;;;;;;13.86;92.90;101045.16;5048141;28;20615;-76
2022/10/30 04:52:10;;;;;;;9.10;4.32;;;;;;;13.79;93.63;101047.00;5041113;28;20055;-76
2022/10/30 04:54:57;;;;;;;8.13;3.80;;;;;;;13.70;94.24;101055.91;5044542;28;20048;-78
2022/10/30 04:57:43;;;;;;;8.48;3.40;;;;;;;13.64;94.98;101048.13;5035608;28;20044;-78
2022/10/30 05:00:31;;;;;;;10.98;4.57;;;;;;;13.59;95.48;101044.69;5038408;28;20438;-77
2022/10/30 05:03:23;;;;;;;11.73;4.25;;;;;;;13.58;95.76;101042.94;5040033;28;20045;-77
2022/10/30 05:06:23;;;;;;;8.70;3.85;;;;;;;13.64;96.21;101047.25;5046819;28;20136;-77
2022/10/30 05:09:10;;;;;;;8.48;4.70;;;;;;;13.67;95.65;101039.31;5046786;28;20650;-79
2022/10/30 05:11:57;;;;;;;7.63;4.68;;;;;;;13.69;95.53;101033.13;5042203;28;20045;-79
2022/10/30 05:14:44;;;;;;;11.55;4.22;;;;;;;13.75;95.65;101032.16;5038886;28;20052;-78
2022/10/30 05:17:30;;;;;;;9.93;5.07;;;;;;;13.79;95.52;101041.72;5032616;28;20330;-79
2022/10/30 05:20:17;;;;;;;10.98;4.43;;;;;;;13.86;94.94;101043.38;5036873;28;20044;-79
2022/10/30 05:23:04;;;;;;;9.25;5.00;;;;;;;13.88;94.77;101033.72;5032755;28;20527;-81
2022/10/30 05:25:53;;;;;;;9.05;5.03;;;;;;;13.93;94.40;101040.66;5039751;28;20727;-78
2022/10/30 05:28:41;;;;;;;8.48;4.35;;;;;;;13.94;94.02;101040.63;5038270;28;20100;-78
2022/10/30 05:31:28;;;;;;;9.18;4.00;;;;;;;13.91;94.28;101051.22;5038784;28;20037;-77
2022/10/30 05:34:15;;;;;;;7.07;4.15;;;;;;;13.83;94.69;101043.44;5038544;28;20045;-77
2022/10/30 05:37:01;;;;;;;7.22;4.35;;;;;;;13.79;95.04;101049.63;5041682;28;20051;-80
2022/10/30 05:39:48;;;;;;;11.38;5.53;;;;;;;13.79;95.76;101043.50;5047381;28;20519;-79
2022/10/30 05:42:35;;;;;;;10.98;4.65;;;;;;;13.75;95.28;101047.94;5042750;28;20041;-79
2022/10/30 05:45:22;;;;;;;8.05;4.10;;;;;;;13.74;95.48;101051.50;5049169;28;20772;-80
2022/10/30 05:48:08;;;;;;;16.60;4.53;;;;;;;13.73;95.72;101053.22;5042939;28;20041;-80
2022/10/30 05:50:56;;;;;;;8.43;3.60;;;;;;;13.74;95.50;101056.75;5035977;28;20059;-79
2022/10/30 05:53:43;;;;;;;8.57;4.10;;;;;;;13.78;95.26;101054.91;5041241;28;20045;-79
2022/10/30 05:56:30;;;;;;;10.13;4.53;;;;;;;13.79;95.14;101061.94;5043074;28;20040;-78
2022/10/30 05:59:17;;;;;;;7.55;3.33;;;;;;;13.76;95.34;101062.84;5043841;28;20610;-77
2022/10/30 06:02:04;;;;;;;6.32;3.55;;;;;;;13.72;95.37;101061.16;5055039;28;20049;-80
2022/10/30 06:04:51;;;;;;;8.68;4.18;;;;;;;13.73;95.17;101062.91;5040268;28;20606;-79
2022/10/30 06:07:38;;;;;;;9.05;4.47;;;;;;;13.67;95.42;101058.59;5039457;28;20037;-79
2022/10/30 06:10:26;;;;;;;6.40;3.55;;;;;;;13.65;95.65;101056.88;5049609;28;20045;-77
2022/10/30 06:13:12;;;;;;;5.57;3.15;;;;;;;13.64;95.64;101052.53;5034479;28;20056;-82
2022/10/30 06:15:59;;;;;;;5.72;3.67;;;;;;;13.64;95.62;101056.00;5044153;28;20084;-78
2022/10/30 06:18:46;;;;;;;11.45;5.22;;;;;;;13.68;95.25;101057.69;5038925;28;20557;-80
2022/10/30 06:21:33;;;;;;;9.40;3.50;;;;;;;13.71;94.91;101067.31;5046618;28;20051;-78
2022/10/30 06:24:20;;;;;;;8.65;4.03;;;;;;;13.74;95.18;101069.91;5048827;28;20063;-80
2022/10/30 06:27:07;;;;;;;9.98;3.97;;;;;;;13.75;94.95;101076.03;5041880;28;20495;-81
2022/10/30 06:29:54;;;;;;;5.10;3.40;;;;;;;13.77;94.44;101069.00;5055482;28;20072;-79
2022/10/30 06:32:41;;;;;;;9.90;4.72;;;;;;;13.75;94.43;101081.28;5054530;28;20045;-77
2022/10/30 06:35:29;;;;;;;8.45;3.97;;;;;;;13.73;94.87;101084.81;5053536;28;20044;-79
2022/10/30 06:38:18;;;;;;;9.18;3.75;;;;;;;13.71;94.76;101091.88;5044823;28;20041;-77
2022/10/30 06:41:05;;;;;;;9.68;4.10;;;;;;;13.66;95.55;101093.69;5044212;28;20707;-79
2022/10/30 06:43:52;;;;;;;9.35;3.60;;;;;;;13.66;95.66;101098.97;5037299;28;20044;-81
2022/10/30 06:46:38;;;;;;;9.27;4.00;;;;;;;13.66;95.39;101098.06;5043465;28;20037;-77
2022/10/30 06:49:31;;;;;;;11.50;4.60;;;;;;;13.64;95.65;101103.38;5052262;28;20044;-79
2022/10/30 06:52:21;;;;;;;13.15;4.10;;;;;;;13.60;95.73;101100.78;5042088;28;20098;-77
2022/10/30 06:55:09;;;;;;;5.55;4.22;;;;;;;13.56;96.20;101103.47;5051617;28;20049;-80
2022/10/30 06:57:57;;;;;;;5.45;3.78;;;;;;;13.53;96.44;101106.16;5037663;28;20041;-77
2022/10/30 07:00:44;;;;;;;7.70;4.57;;;;;;;13.55;96.59;101106.13;5044771;28;20123;-80
2022/10/30 07:03:31;;;;;;;9.80;4.40;;;;;;;13.55;96.64;101109.63;5055409;28;20079;-77
2022/10/30 07:06:17;;;;;;;7.25;4.82;;;;;;;13.62;96.55;101105.13;5044763;28;20041;-77
2022/10/30 07:09:04;;;;;;;8.98;3.78;;;;;;;13.67;96.17;101110.34;5038588;28;20053;-81
2022/10/30 07:11:51;;;;;;;7.70;3.95;;;;;;;13.68;96.06;101106.81;5053436;28;20039;-75
2022/10/30 07:14:38;;;;;;;20.50;8.63;;;;;;;13.71;96.36;101114.66;5051937;28;20079;-76
2022/10/30 07:17:25;;;;;;;14.32;6.50;;;;;;;13.76;95.99;101117.25;5043454;28;20049;-78
2022/10/30 07:20:11;;;;;;;13.07;4.43;;;;;;;13.86;95.58;101116.22;5039169;28;20160;-76
2022/10/30 07:22:59;;;;;;;9.82;5.45;;;;;;;13.93;94.96;101109.09;5046351;28;20041;-77
2022/10/30 07:25:45;;;;;;;7.40;4.60;;;;;;;14.00;94.55;101115.97;5042586;28;20045;-77
2022/10/30 07:28:32;;;;;;;9.38;4.38;;;;;;;14.06;94.19;101113.25;5047709;28;20056;-76
2022/10/30 07:31:19;;;;;;;9.07;4.55;;;;;;;14.11;93.97;101115.81;5035072;28;20037;-78
2022/10/30 07:34:06;;;;;;;6.72;3.80;;;;;;;14.17;93.76;101118.34;5044879;28;20051;-76
2022/10/30 07:36:53;;;;;;;9.98;5.10;;;;;;;14.21;93.51;101120.91;5035749;28;20109;-80
2022/10/30 07:39:40;;;;;;;6.65;4.63;;;;;;;14.24;93.56;101122.63;5043076;28;20117;-76
2022/10/30 07:42:26;;;;;;;10.07;4.47;;;;;;;14.32;93.03;101128.63;5055331;28;20036;-77
2022/10/30 07:45:14;;;;;;;12.45;5.43;;;;;;;14.37;92.75;101123.28;5045498;28;20056;-79
2022/10/30 07:48:00;;;;;;;12.55;6.40;;;;;;;14.44;92.26;101121.41;5038982;28;20045;-76
2022/10/30 07:50:47;;;;;;;13.55;7.15;;;;;;;14.49;91.84;101122.19;5045711;28;20037;-77
2022/10/30 07:53:34;;;;;;;16.60;8.68;;;;;;;14.56;91.36;101119.44;5048916;28;20395;-79
2022/10/30 07:56:21;;;;;;;8.68;4.57;;;;;;;14.65;90.76;101123.72;5041538;28;20036;-75
2022/10/30 07:59:08;;;;;;;11.40;5.00;;;;;;;14.71;90.43;101120.94;5051841;28;20077;-77
2022/10/30 08:01:54;;;;;;;9.77;5.15;;;;;;;14.76;89.81;101120.88;5039629;28;20600;-76
2022/10/30 08:04:41;;;;;;;14.57;5.03;;;;;;;14.83;89.47;101122.47;5040444;28;20045;-81
2022/10/30 08:07:36;;;;;;;9.88;5.38;;;;;;;14.91;89.14;101130.22;5048108;28;20057;-76
2022/10/30 08:10:23;;;;;;;7.32;4.97;;;;;;;15.00;88.37;101129.19;5043418;28;20043;-75
2022/10/30 08:13:10;;;;;;;5.88;4.43;;;;;;;15.09;88.13;101131.63;5054456;28;20052;-76
2022/10/30 08:15:57;;;;;;;12.77;5.00;;;;;;;15.17;87.55;101131.47;5044988;28;20048;-76
2022/10/30 08:18:44;;;;;;;14.10;4.90;;;;;;;15.23;87.18;101128.72;5040016;28;20055;-77
2022/10/30 08:21:31;;;;;;;9.90;5.07;;;;;;;15.30;86.71;101130.31;5044327;28;20037;-78
2022/10/30 08:24:18;;;;;;;8.05;4.55;;;;;;;15.34;86.91;101125.84;5038549;28;20626;-77
2022/10/30 08:27:05;;;;;;;7.57;4.40;;;;;;;15.42;86.36;101123.06;5048980;28;20052;-78
2022/10/30 08:29:52;;;;;;;8.02;4.13;;;;;;;15.49;86.06;101127.31;5035192;28;20055;-77
2022/10/30 08:32:38;;;;;;;8.88;4.13;;;;;;;15.54;86.02;101128.94;5043787;28;20044;-78
2022/10/30 08:35:26;;;;;;;9.52;5.10;;;;;;;15.60;85.93;101138.47;5038114;28;20036;-77
2022/10/30 08:38:13;;;;;;;15.32;7.43;;;;;;;15.67;85.55;101133.94;5040218;28;21097;-77
2022/10/30 08:41:02;;;;;;;13.38;4.65;;;;;;;15.75;85.31;101144.31;5052090;28;20055;-78
2022/10/30 08:43:48;;;;;;;8.80;4.13;;;;;;;15.81;84.88;101141.56;5044025;28;20051;-77
2022/10/30 08:46:35;;;;;;;9.75;4.93;;;;;;;15.88;84.63;101135.25;5043464;28;20037;-79
2022/10/30 08:49:22;;;;;;;7.60;4.03;;;;;;;15.94;84.44;101135.09;5036708;28;20152;-77
2022/10/30 08:52:09;;;;;;;18.15;4.88;;;;;;;16.03;83.49;101144.59;5047008;28;20040;-78
2022/10/30 08:54:56;;;;;;;9.25;4.38;;;;;;;16.08;83.73;101137.41;5029016;28;20714;-80
2022/10/30 08:57:42;;;;;;;13.98;6.28;;;;;;;16.15;83.17;101143.41;5047856;28;20060;-78
2022/10/30 09:00:30;;;;;;;9.77;4.18;;;;;;;16.26;82.44;101151.94;5044575;28;20047;-77
2022/10/30 09:03:17;;;;;;;8.32;3.90;;;;;;;16.34;81.49;101146.47;5042428;28;20156;-80
2022/10/30 09:06:04;;;;;;;7.85;3.83;;;;;;;16.41;80.99;101152.47;5042419;28;20048;-78
2022/10/30 09:08:51;;;;;;;7.28;4.00;;;;;;;16.44;80.98;101155.03;5043932;28;20568;-79
2022/10/30 09:11:38;;;;;;;6.32;3.47;;;;;;;16.44;80.90;101148.00;5040848;28;20047;-76
2022/10/30 09:14:24;;;;;;;10.88;4.63;;;;;;;16.54;80.10;101152.13;5045358;28;20056;-78
2022/10/30 09:17:12;;;;;;;9.57;4.70;;;;;;;16.64;79.33;101147.47;5040785;28;20049;-80
2022/10/30 09:19:59;;;;;;;13.00;5.07;;;;;;;16.76;78.78;101142.75;5045355;28;20053;-77
2022/10/30 09:22:45;;;;;;;8.77;4.43;;;;;;;16.90;77.02;101147.69;5038885;28;20034;-77
2022/10/30 09:25:32;;;;;;;11.45;3.80;;;;;;;16.95;77.14;101151.09;5052914;28;20044;-80
2022/10/30 09:28:19;;;;;;;12.43;4.13;;;;;;;16.99;76.97;101150.09;5044779;28;20037;-78
2022/10/30 09:31:06;;;;;;;9.52;4.05;;;;;;;16.99;77.18;101145.66;5053117;28;20041;-76
2022/10/30 09:33:52;;;;;;;8.50;3.33;;;;;;;16.99;77.22;101145.66;5037722;28;20702;-79
2022/10/30 09:36:42;;;;;;;6.32;4.43;;;;;;;17.08;76.47;101154.25;5046620;28;20041;-75
2022/10/30 09:39:29;;;;;;;8.38;3.55;;;;;;;17.16;76.05;101153.13;5041487;28;20040;-81
2022/10/30 09:42:35;;;;;;;9.13;3.60;;;;;;;17.24;75.54;101152.91;5038298;28;20742;-78
2022/10/30 09:45:39;;;;;;;8.80;3.83;;;;;;;17.41;74.33;101155.06;5061408;28;20045;-77
2022/10/30 09:48:51;;;;;;;6.82;3.65;;;;;;;17.51;73.32;101150.38;5054981;28;20663;-75
2022/10/30 09:51:55;;;;;;;7.63;4.53;;;;;;;17.53;73.69;101151.19;5056013;28;20680;-75
2022/10/30 09:55:17;;;;;;;5.88;3.55;;;;;;;17.55;73.62;101159.06;5048428;28;20033;-79
2022/10/30 09:58:20;;;;;;;13.93;3.60;;;;;;;17.66;73.34;101157.88;5053606;28;20037;-83
2022/10/30 10:01:29;;;;;;;8.52;3.88;;;;;;;17.72;73.11;101155.91;5042791;28;20045;-76
2022/10/30 10:04:44;;;;;;;7.25;3.70;;;;;;;17.79;72.19;101150.38;5043326;28;20047;-77
2022/10/30 10:07:40;;;;;;;11.82;4.13;;;;;;;17.86;72.21;101154.59;5052384;28;20613;-81
2022/10/30 10:10:44;;;;;;;9.60;3.92;;;;;;;17.87;72.42;101150.13;5052518;28;20040;-77
2022/10/30 10:13:40;;;;;;;9.95;4.07;;;;;;;17.96;72.09;101149.03;5054654;28;20593;-79
2022/10/30 10:16:31;;;;;;;7.53;4.35;;;;;;;18.06;71.66;101152.25;5048989;28;20044;-75
2022/10/30 10:19:33;;;;;;;6.50;3.67;;;;;;;18.15;71.00;101157.25;5033020;28;20081;-80
2022/10/30 10:22:39;;;;;;;11.20;3.85;;;;;;;18.26;70.20;101147.16;5038568;28;20037;-77
2022/10/30 10:25:27;;;;;;;6.20;2.95;;;;;;;18.32;70.46;101146.09;5045193;28;20040;-77
2022/10/30 10:28:22;;;;;;;13.27;3.72;;;;;;;18.39;69.74;101144.09;5040804;28;20053;-76
2022/10/30 10:31:27;;;;;;;7.05;3.47;;;;;;;18.43;69.53;101146.56;5052845;28;20049;-76
2022/10/30 10:34:30;;;;;;;10.77;4.05;;;;;;;18.42;70.04;101141.34;5060248;28;20036;-77
2022/10/30 10:37:30;;;;;;;8.90;4.47;;;;;;;18.47;69.37;101144.69;5045814;28;20048;-77
2022/10/30 10:40:38;;;;;;;6.38;4.07;;;;;;;18.51;68.75;101143.66;5060928;28;20152;-75
2022/10/30 10:43:28;;;;;;;4.63;3.38;;;;;;;18.56;69.32;101140.88;5042426;28;20044;-80
2022/10/30 10:46:49;;;;;;;6.40;3.60;;;;;;;18.54;68.87;101140.94;5054267;28;20053;-75
2022/10/30 10:50:10;;;;;;;6.38;3.58;;;;;;;18.64;68.28;101130.84;5059725;28;20183;-76
2022/10/30 10:53:11;;;;;;;13.63;4.03;;;;;;;18.66;68.24;101121.06;5042475;28;20187;-74
2022/10/30 10:56:00;;;;;;;7.00;3.50;;;;;;;18.71;68.57;101121.78;5037616;28;20040;-79
2022/10/30 10:59:20;;;;;;;10.60;4.30;;;;;;;18.80;67.76;101123.25;5050176;28;20041;-79
2022/10/30 11:02:43;;;;;;;9.40;3.97;;;;;;;18.84;67.66;101106.28;5048949;28;20442;-79
2022/10/30 11:05:55;;;;;;;5.38;3.65;;;;;;;18.93;66.93;101107.75;5043295;28;20048;-76
2022/10/30 11:08:42;;;;;;;7.22;4.03;;;;;;;18.97;67.30;101107.59;5047719;28;20309;-76
2022/10/30 11:11:29;;;;;;;8.57;3.80;;;;;;;19.06;66.55;101102.88;5053992;28;20037;-77
2022/10/30 11:14:29;;;;;;;9.43;3.70;;;;;;;19.17;65.72;101109.50;5042575;28;20676;-76
2022/10/30 11:17:26;;;;;;;12.57;3.90;;;;;;;19.27;65.42;101099.41;5058407;28;20048;-78
2022/10/30 11:20:21;;;;;;;9.55;3.70;;;;;;;19.33;65.85;101107.16;5037001;28;20055;-78
2022/10/30 11:23:32;;;;;;;11.68;4.68;;;;;;;19.33;65.29;101107.16;5040281;28;20064;-77
2022/10/30 11:26:19;;;;;;;6.38;3.75;;;;;;;19.34;65.75;101100.03;5050797;28;20044;-75
2022/10/30 11:29:14;;;;;;;7.13;3.17;;;;;;;19.39;64.98;101099.88;5052037;28;20056;-77
2022/10/30 11:32:05;;;;;;;6.13;2.70;;;;;;;19.37;65.61;101094.59;5039837;28;20033;-79
2022/10/30 11:35:08;;;;;;;9.90;4.43;;;;;;;19.37;64.93;101096.41;5042229;28;20041;-77
2022/10/30 11:38:20;;;;;;;7.40;3.83;;;;;;;19.38;65.33;101099.00;5060087;28;20051;-77
2022/10/30 11:41:09;;;;;;;9.75;3.95;;;;;;;19.44;64.97;101092.59;5040495;28;20112;-75
2022/10/30 11:43:57;;;;;;;6.72;3.30;;;;;;;19.54;64.52;101087.78;5045165;28;20052;-76
2022/10/30 11:46:43;;;;;;;7.05;3.83;;;;;;;19.53;64.60;101081.63;5045921;28;20049;-77
2022/10/30 11:49:50;;;;;;;7.78;4.50;;;;;;;19.61;64.18;101083.97;5040851;28;20048;-78
2022/10/30 11:52:41;;;;;;;8.35;4.68;;;;;;;19.66;64.08;101085.50;5058731;28;20116;-77
2022/10/30 11:55:37;;;;;;;8.77;4.18;;;;;;;19.68;63.73;101085.44;5044652;28;20043;-80
2022/10/30 11:58:38;;;;;;;7.20;3.67;;;;;;;19.71;63.49;101087.09;5044715;28;20715;-82
2022/10/30 12:01:33;;;;;;;6.28;3.50;;;;;;;19.77;63.50;101070.91;5050925;28;20067;-82
2022/10/30 12:04:27;;;;;;;8.32;3.42;;;;;;;19.81;63.42;101073.41;5055125;28;20176;-83
2022/10/30 12:07:22;;;;;;;6.47;3.58;;;;;;;19.85;63.31;101078.63;5042319;28;20079;-82
2022/10/30 12:10:29;;;;;;;12.30;3.80;;;;;;;19.97;61.99;101075.44;5054627;28;20044;-83
2022/10/30 12:13:19;;;;;;;14.48;3.85;;;;;;;20.04;62.19;101068.06;5044295;28;20052;-82
2022/10/30 12:16:17;;;;;;;9.90;3.97;;;;;;;20.13;61.56;101060.59;5037647;28;20399;-83
2022/10/30 12:19:14;;;;;;;7.55;3.67;;;;;;;20.27;61.64;101054.69;5049781;28;20055;-84
2022/10/30 12:22:01;;;;;;;9.43;3.40;;;;;;;20.33;61.16;101057.06;5044365;28;20154;-87
2022/10/30 12:24:48;;;;;;;6.22;4.30;;;;;;;20.37;61.39;101048.97;5042390;28;20171;-81
2022/10/30 12:27:38;;;;;;;12.55;3.65;;;;;;;20.41;61.03;101050.56;5045295;28;20439;-82
2022/10/30 12:30:27;;;;;;;7.97;4.28;;;;;;;20.41;60.94;101048.75;5046544;28;20140;-83
2022/10/30 12:34:04;;;;;;;12.55;4.72;;;;;;;20.42;60.86;101044.31;5033849;28;20045;-83
2022/10/30 12:37:11;;;;;;;8.27;3.45;;;;;;;20.36;61.33;101042.75;5056032;28;20180;-82
2022/10/30 12:40:05;;;;;;;10.43;3.75;;;;;;;20.39;60.80;101036.44;5047715;28;20705;-82
2022/10/30 12:43:28;;;;;;;7.25;3.83;;;;;;;20.41;60.07;101034.59;5043186;28;20470;-82
2022/10/30 12:46:32;;;;;;;7.13;3.60;;;;;;;20.40;59.99;101031.09;5043576;28;20036;-80
2022/10/30 12:49:56;;;;;;;6.75;3.35;;;;;;;20.42;60.05;101026.53;5034806;28;20140;-82
2022/10/30 12:53:26;;;;;;;6.95;2.88;;;;;;;20.42;59.76;101031.88;5054083;28;20623;-84
2022/10/30 12:56:24;;;;;;;6.85;3.17;;;;;;;20.48;59.96;101033.38;5056516;28;20554;-81
2022/10/30 12:59:25;;;;;;;9.65;3.58;;;;;;;20.47;60.15;101034.34;5044721;28;20694;-81
2022/10/30 13:02:26;;;;;;;10.27;3.83;;;;;;;20.46;59.92;101035.25;5050206;28;20147;-82
2022/10/30 13:05:42;;;;;;;9.88;3.53;;;;;;;20.41;60.50;101029.28;5045618;28;20048;-79
2022/10/30 13:08:59;;;;;;;9.63;4.13;;;;;;;20.37;60.43;101033.88;5051561;28;20044;-81
2022/10/30 13:12:04;;;;;;;11.07;4.95;;;;;;;20.38;60.74;101027.63;5040750;28;20044;-80
2022/10/30 13:14:55;;;;;;;7.25;3.92;;;;;;;20.40;60.40;101027.53;5038051;28;20045;-81
2022/10/30 13:17:42;;;;;;;12.57;4.43;;;;;;;20.47;60.18;101029.00;5033809;28;20045;-81
2022/10/30 13:20:31;;;;;;;8.63;3.35;;;;;;;20.48;59.92;101036.03;5041654;28;20067;-82